sensor_id;sensor_type;location;lat;lon;timestamp;pressure;altitude;pressure_sealevel;temperature;humidity
69058;BME280;56128;37.534;-122.308;2023-04-12T00:00:05;101700.38;;;13.87;81.75
69058;BME280;56128;37.534;-122.308;2023-04-12T00:02:36;101696.59;;;13.90;78.13
69058;BME280;56128;37.534;-122.308;2023-04-12T00:05:02;101703.31;;;13.84;78.72
69058;BME280;56128;37.534;-122.308;2023-04-12T00:07:29;101687.13;;;13.73;79.68
69058;BME280;56128;37.534;-122.308;2023-04-12T00:09:56;101688.09;;;13.72;80.02
69058;BME280;56128;37.534;-122.308;2023-04-12T00:12:22;101685.28;;;13.73;79.25
69058;BME280;56128;37.534;-122.308;2023-04-12T00:14:49;101685.09;;;13.63;80.35
69058;BME280;56128;37.534;-122.308;2023-04-12T00:17:15;101696.59;;;13.66;81.48
69058;BME280;56128;37.534;-122.308;2023-04-12T00:19:43;101699.31;;;13.66;80.09
69058;BME280;56128;37.534;-122.308;2023-04-12T00:22:11;101689.19;;;13.69;83.57
69058;BME280;56128;37.534;-122.308;2023-04-12T00:24:39;101697.97;;;13.71;82.87
69058;BME280;56128;37.534;-122.308;2023-04-12T00:27:06;101686.19;;;13.61;82.46
69058;BME280;56128;37.534;-122.308;2023-04-12T00:29:33;101690.75;;;13.47;84.44
69058;BME280;56128;37.534;-122.308;2023-04-12T00:32:00;101698.28;;;13.42;86.40
69058;BME280;56128;37.534;-122.308;2023-04-12T00:34:28;101700.34;;;13.39;84.27
69058;BME280;56128;37.534;-122.308;2023-04-12T00:36:54;101698.44;;;13.28;87.92
69058;BME280;56128;37.534;-122.308;2023-04-12T00:39:21;101694.47;;;13.21;86.58
69058;BME280;56128;37.534;-122.308;2023-04-12T00:41:47;101694.13;;;13.25;87.34
69058;BME280;56128;37.534;-122.308;2023-04-12T00:44:13;101694.91;;;13.14;88.04
69058;BME280;56128;37.534;-122.308;2023-04-12T00:46:43;101691.63;;;12.98;89.58
69058;BME280;56128;37.534;-122.308;2023-04-12T00:49:11;101694.09;;;12.88;90.06
69058;BME280;56128;37.534;-122.308;2023-04-12T00:51:38;101700.34;;;12.76;91.54
69058;BME280;56128;37.534;-122.308;2023-04-12T00:54:05;101698.00;;;12.71;95.51
69058;BME280;56128;37.534;-122.308;2023-04-12T00:56:32;101705.72;;;12.63;96.60
69058;BME280;56128;37.534;-122.308;2023-04-12T00:58:59;101693.25;;;12.62;98.18
69058;BME280;56128;37.534;-122.308;2023-04-12T01:01:26;101704.72;;;12.51;98.23
69058;BME280;56128;37.534;-122.308;2023-04-12T01:03:55;101709.97;;;12.40;99.56
69058;BME280;56128;37.534;-122.308;2023-04-12T01:14:46;101707.81;;;11.92;100.00
69058;BME280;56128;37.534;-122.308;2023-04-12T01:17:19;101708.56;;;11.81;100.00
69058;BME280;56128;37.534;-122.308;2023-04-12T01:19:53;101707.53;;;11.69;100.00
69058;BME280;56128;37.534;-122.308;2023-04-12T01:22:30;101706.13;;;11.63;100.00
69058;BME280;56128;37.534;-122.308;2023-04-12T01:25:23;101709.09;;;11.59;100.00
69058;BME280;56128;37.534;-122.308;2023-04-12T01:28:01;101698.88;;;11.51;100.00
69058;BME280;56128;37.534;-122.308;2023-04-12T01:30:28;101718.03;;;11.45;100.00
69058;BME280;56128;37.534;-122.308;2023-04-12T01:32:55;101713.25;;;11.35;100.00
69058;BME280;56128;37.534;-122.308;2023-04-12T01:35:26;101724.47;;;11.28;100.00
69058;BME280;56128;37.534;-122.308;2023-04-12T01:37:53;101717.03;;;11.18;100.00
69058;BME280;56128;37.534;-122.308;2023-04-12T01:40:20;101713.59;;;11.16;100.00
69058;BME280;56128;37.534;-122.308;2023-04-12T01:42:46;101719.91;;;11.15;100.00
69058;BME280;56128;37.534;-122.308;2023-04-12T01:45:12;101721.34;;;11.07;100.00
69058;BME280;56128;37.534;-122.308;2023-04-12T01:47:39;101718.97;;;11.02;100.00
69058;BME280;56128;37.534;-122.308;2023-04-12T01:50:42;101712.38;;;10.93;100.00
69058;BME280;56128;37.534;-122.308;2023-04-12T01:53:18;101718.84;;;10.89;100.00
69058;BME280;56128;37.534;-122.308;2023-04-12T01:55:46;101716.47;;;10.84;100.00
69058;BME280;56128;37.534;-122.308;2023-04-12T01:58:20;101715.03;;;10.79;100.00
69058;BME280;56128;37.534;-122.308;2023-04-12T02:00:48;101708.63;;;10.67;100.00
69058;BME280;56128;37.534;-122.308;2023-04-12T02:03:15;101714.16;;;10.64;100.00
69058;BME280;56128;37.534;-122.308;2023-04-12T02:05:42;101710.53;;;10.50;100.00
69058;BME280;56128;37.534;-122.308;2023-04-12T02:08:09;101707.34;;;10.44;100.00
69058;BME280;56128;37.534;-122.308;2023-04-12T02:10:36;101700.38;;;10.41;100.00
69058;BME280;56128;37.534;-122.308;2023-04-12T02:13:05;101709.88;;;10.31;100.00
69058;BME280;56128;37.534;-122.308;2023-04-12T02:15:31;101704.91;;;10.24;100.00
69058;BME280;56128;37.534;-122.308;2023-04-12T02:17:58;101702.00;;;10.13;100.00
69058;BME280;56128;37.534;-122.308;2023-04-12T02:20:25;101697.69;;;10.11;100.00
69058;BME280;56128;37.534;-122.308;2023-04-12T02:22:52;101702.72;;;10.01;100.00
69058;BME280;56128;37.534;-122.308;2023-04-12T02:25:18;101693.44;;;9.92;100.00
69058;BME280;56128;37.534;-122.308;2023-04-12T02:27:45;101692.94;;;9.85;100.00
69058;BME280;56128;37.534;-122.308;2023-04-12T02:30:12;101687.06;;;9.79;100.00
69058;BME280;56128;37.534;-122.308;2023-04-12T02:32:38;101691.81;;;9.73;100.00
69058;BME280;56128;37.534;-122.308;2023-04-12T02:35:14;101698.56;;;9.65;100.00
69058;BME280;56128;37.534;-122.308;2023-04-12T02:37:45;101702.97;;;9.66;100.00
69058;BME280;56128;37.534;-122.308;2023-04-12T02:40:12;101707.22;;;9.54;100.00
69058;BME280;56128;37.534;-122.308;2023-04-12T02:42:41;101707.38;;;9.51;100.00
69058;BME280;56128;37.534;-122.308;2023-04-12T02:45:08;101695.56;;;9.39;100.00
69058;BME280;56128;37.534;-122.308;2023-04-12T02:47:35;101712.38;;;9.41;100.00
69058;BME280;56128;37.534;-122.308;2023-04-12T02:50:03;101702.31;;;9.30;100.00
69058;BME280;56128;37.534;-122.308;2023-04-12T02:52:29;101700.06;;;9.22;100.00
69058;BME280;56128;37.534;-122.308;2023-04-12T02:54:58;101714.16;;;9.24;100.00
69058;BME280;56128;37.534;-122.308;2023-04-12T02:57:24;101712.63;;;9.20;100.00
69058;BME280;56128;37.534;-122.308;2023-04-12T02:59:51;101712.03;;;9.15;100.00
69058;BME280;56128;37.534;-122.308;2023-04-12T03:02:20;101704.16;;;9.12;100.00
69058;BME280;56128;37.534;-122.308;2023-04-12T03:04:47;101700.13;;;9.05;100.00
69058;BME280;56128;37.534;-122.308;2023-04-12T03:07:19;101701.06;;;9.04;100.00
69058;BME280;56128;37.534;-122.308;2023-04-12T03:09:48;101696.22;;;8.94;100.00
69058;BME280;56128;37.534;-122.308;2023-04-12T03:12:15;101709.50;;;8.96;100.00
69058;BME280;56128;37.534;-122.308;2023-04-12T03:14:43;101717.84;;;9.06;100.00
69058;BME280;56128;37.534;-122.308;2023-04-12T03:17:09;101719.06;;;9.00;100.00
69058;BME280;56128;37.534;-122.308;2023-04-12T03:19:36;101714.28;;;8.89;100.00
69058;BME280;56128;37.534;-122.308;2023-04-12T03:22:05;101707.22;;;8.88;100.00
69058;BME280;56128;37.534;-122.308;2023-04-12T03:24:32;101714.78;;;8.80;100.00
69058;BME280;56128;37.534;-122.308;2023-04-12T03:27:03;101714.78;;;8.80;100.00
69058;BME280;56128;37.534;-122.308;2023-04-12T03:29:30;101714.09;;;8.76;100.00
69058;BME280;56128;37.534;-122.308;2023-04-12T03:31:57;101711.75;;;8.70;100.00
69058;BME280;56128;37.534;-122.308;2023-04-12T03:34:25;101707.13;;;8.74;100.00
69058;BME280;56128;37.534;-122.308;2023-04-12T03:36:53;101710.91;;;8.70;100.00
69058;BME280;56128;37.534;-122.308;2023-04-12T03:39:20;101717.88;;;8.72;100.00
69058;BME280;56128;37.534;-122.308;2023-04-12T03:41:46;101721.91;;;8.64;100.00
69058;BME280;56128;37.534;-122.308;2023-04-12T03:44:13;101714.34;;;8.54;100.00
69058;BME280;56128;37.534;-122.308;2023-04-12T03:46:39;101732.09;;;8.55;100.00
69058;BME280;56128;37.534;-122.308;2023-04-12T03:49:05;101729.75;;;8.49;100.00
69058;BME280;56128;37.534;-122.308;2023-04-12T03:51:31;101733.63;;;8.42;100.00
69058;BME280;56128;37.534;-122.308;2023-04-12T03:53:58;101735.53;;;8.40;100.00
69058;BME280;56128;37.534;-122.308;2023-04-12T03:56:24;101737.50;;;8.36;100.00
69058;BME280;56128;37.534;-122.308;2023-04-12T03:58:50;101742.75;;;8.38;100.00
69058;BME280;56128;37.534;-122.308;2023-04-12T04:01:17;101746.50;;;8.34;100.00
69058;BME280;56128;37.534;-122.308;2023-04-12T04:03:43;101749.31;;;8.31;100.00
69058;BME280;56128;37.534;-122.308;2023-04-12T04:06:10;101755.06;;;8.40;100.00
69058;BME280;56128;37.534;-122.308;2023-04-12T04:08:37;101751.13;;;8.30;100.00
69058;BME280;56128;37.534;-122.308;2023-04-12T04:11:04;101752.94;;;8.29;100.00
69058;BME280;56128;37.534;-122.308;2023-04-12T04:13:30;101743.22;;;8.28;100.00
69058;BME280;56128;37.534;-122.308;2023-04-12T04:16:02;101753.88;;;8.28;100.00
69058;BME280;56128;37.534;-122.308;2023-04-12T04:18:29;101749.97;;;8.18;100.00
69058;BME280;56128;37.534;-122.308;2023-04-12T04:20:56;101751.97;;;8.13;100.00
69058;BME280;56128;37.534;-122.308;2023-04-12T04:23:23;101748.53;;;8.11;100.00
69058;BME280;56128;37.534;-122.308;2023-04-12T04:25:50;101743.31;;;8.09;100.00
69058;BME280;56128;37.534;-122.308;2023-04-12T04:28:18;101745.09;;;8.09;100.00
69058;BME280;56128;37.534;-122.308;2023-04-12T04:30:44;101739.53;;;8.13;100.00
69058;BME280;56128;37.534;-122.308;2023-04-12T04:33:13;101741.97;;;8.18;100.00
69058;BME280;56128;37.534;-122.308;2023-04-12T04:35:41;101743.94;;;8.15;100.00
69058;BME280;56128;37.534;-122.308;2023-04-12T04:38:08;101731.38;;;8.17;100.00
69058;BME280;56128;37.534;-122.308;2023-04-12T04:40:38;101729.31;;;8.22;100.00
69058;BME280;56128;37.534;-122.308;2023-04-12T04:43:04;101727.84;;;8.16;100.00
69058;BME280;56128;37.534;-122.308;2023-04-12T04:45:31;101728.69;;;8.17;100.00
69058;BME280;56128;37.534;-122.308;2023-04-12T04:47:57;101731.63;;;8.12;100.00
69058;BME280;56128;37.534;-122.308;2023-04-12T04:50:24;101725.50;;;8.10;100.00
69058;BME280;56128;37.534;-122.308;2023-04-12T04:52:52;101727.31;;;8.09;100.00
69058;BME280;56128;37.534;-122.308;2023-04-12T04:55:19;101732.69;;;8.08;100.00
69058;BME280;56128;37.534;-122.308;2023-04-12T04:57:51;101728.16;;;8.10;100.00
69058;BME280;56128;37.534;-122.308;2023-04-12T05:00:17;101743.22;;;8.11;100.00
69058;BME280;56128;37.534;-122.308;2023-04-12T05:02:43;101737.16;;;8.07;100.00
69058;BME280;56128;37.534;-122.308;2023-04-12T05:05:11;101726.09;;;7.97;100.00
69058;BME280;56128;37.534;-122.308;2023-04-12T05:07:57;101732.31;;;7.98;100.00
69058;BME280;56128;37.534;-122.308;2023-04-12T05:10:23;101733.16;;;7.99;100.00
69058;BME280;56128;37.534;-122.308;2023-04-12T05:12:50;101741.16;;;7.99;100.00
69058;BME280;56128;37.534;-122.308;2023-04-12T05:15:17;101744.94;;;7.94;100.00
69058;BME280;56128;37.534;-122.308;2023-04-12T05:17:44;101735.31;;;7.90;100.00
69058;BME280;56128;37.534;-122.308;2023-04-12T05:20:10;101740.97;;;7.84;100.00
69058;BME280;56128;37.534;-122.308;2023-04-12T05:22:36;101737.94;;;7.92;100.00
69058;BME280;56128;37.534;-122.308;2023-04-12T05:25:03;101728.44;;;7.86;100.00
69058;BME280;56128;37.534;-122.308;2023-04-12T05:27:30;101738.25;;;7.86;100.00
69058;BME280;56128;37.534;-122.308;2023-04-12T05:29:56;101728.53;;;7.85;100.00
69058;BME280;56128;37.534;-122.308;2023-04-12T05:32:25;101731.41;;;7.80;100.00
69058;BME280;56128;37.534;-122.308;2023-04-12T05:34:51;101734.06;;;7.80;100.00
69058;BME280;56128;37.534;-122.308;2023-04-12T05:37:18;101732.50;;;7.76;100.00
69058;BME280;56128;37.534;-122.308;2023-04-12T05:39:44;101734.66;;;7.68;100.00
69058;BME280;56128;37.534;-122.308;2023-04-12T05:42:10;101731.34;;;7.62;100.00
69058;BME280;56128;37.534;-122.308;2023-04-12T05:44:38;101731.44;;;7.61;100.00
69058;BME280;56128;37.534;-122.308;2023-04-12T05:47:04;101734.19;;;7.59;100.00
69058;BME280;56128;37.534;-122.308;2023-04-12T05:49:30;101726.63;;;7.50;100.00
69058;BME280;56128;37.534;-122.308;2023-04-12T05:51:57;101732.09;;;7.47;100.00
69058;BME280;56128;37.534;-122.308;2023-04-12T05:54:24;101729.53;;;7.45;100.00
69058;BME280;56128;37.534;-122.308;2023-04-12T05:56:51;101726.91;;;7.44;100.00
69058;BME280;56128;37.534;-122.308;2023-04-12T05:59:20;101727.78;;;7.44;100.00
69058;BME280;56128;37.534;-122.308;2023-04-12T06:01:47;101723.47;;;7.42;100.00
69058;BME280;56128;37.534;-122.308;2023-04-12T06:04:14;101725.34;;;7.40;100.00
69058;BME280;56128;37.534;-122.308;2023-04-12T06:06:40;101718.00;;;7.45;100.00
69058;BME280;56128;37.534;-122.308;2023-04-12T06:09:08;101722.69;;;7.40;100.00
69058;BME280;56128;37.534;-122.308;2023-04-12T06:11:35;101710.53;;;7.34;100.00
69058;BME280;56128;37.534;-122.308;2023-04-12T06:14:04;101715.13;;;7.30;100.00
69058;BME280;56128;37.534;-122.308;2023-04-12T06:16:31;101710.66;;;7.31;100.00
69058;BME280;56128;37.534;-122.308;2023-04-12T06:18:57;101711.66;;;7.28;100.00
69058;BME280;56128;37.534;-122.308;2023-04-12T06:21:23;101709.00;;;7.28;100.00
69058;BME280;56128;37.534;-122.308;2023-04-12T06:23:50;101716.19;;;7.26;100.00
69058;BME280;56128;37.534;-122.308;2023-04-12T06:26:16;101702.47;;;7.17;100.00
69058;BME280;56128;37.534;-122.308;2023-04-12T06:28:42;101711.97;;;7.22;100.00
69058;BME280;56128;37.534;-122.308;2023-04-12T06:31:09;101697.84;;;7.20;100.00
69058;BME280;56128;37.534;-122.308;2023-04-12T06:33:35;101697.06;;;7.18;100.00
69058;BME280;56128;37.534;-122.308;2023-04-12T06:36:01;101699.88;;;7.15;100.00
69058;BME280;56128;37.534;-122.308;2023-04-12T06:38:28;101696.47;;;7.11;100.00
69058;BME280;56128;37.534;-122.308;2023-04-12T06:40:57;101694.78;;;7.10;100.00
69058;BME280;56128;37.534;-122.308;2023-04-12T06:43:23;101697.19;;;7.15;100.00
69058;BME280;56128;37.534;-122.308;2023-04-12T06:45:49;101692.69;;;7.17;100.00
69058;BME280;56128;37.534;-122.308;2023-04-12T06:48:15;101680.59;;;7.10;100.00
69058;BME280;56128;37.534;-122.308;2023-04-12T06:50:43;101685.91;;;7.10;100.00
69058;BME280;56128;37.534;-122.308;2023-04-12T06:53:09;101694.81;;;7.09;100.00
69058;BME280;56128;37.534;-122.308;2023-04-12T06:55:35;101690.09;;;7.15;100.00
69058;BME280;56128;37.534;-122.308;2023-04-12T06:58:01;101688.06;;;7.21;100.00
69058;BME280;56128;37.534;-122.308;2023-04-12T07:00:28;101687.34;;;7.17;100.00
69058;BME280;56128;37.534;-122.308;2023-04-12T07:02:54;101689.81;;;7.22;100.00
69058;BME280;56128;37.534;-122.308;2023-04-12T07:05:20;101692.53;;;7.20;100.00
69058;BME280;56128;37.534;-122.308;2023-04-12T07:07:46;101693.59;;;7.16;100.00
69058;BME280;56128;37.534;-122.308;2023-04-12T07:10:13;101692.84;;;7.14;100.00
69058;BME280;56128;37.534;-122.308;2023-04-12T07:12:39;101694.16;;;7.23;100.00
69058;BME280;56128;37.534;-122.308;2023-04-12T07:15:07;101692.22;;;7.26;100.00
69058;BME280;56128;37.534;-122.308;2023-04-12T07:17:33;101692.53;;;7.20;100.00
69058;BME280;56128;37.534;-122.308;2023-04-12T07:20:00;101689.22;;;7.15;100.00
69058;BME280;56128;37.534;-122.308;2023-04-12T07:22:26;101684.84;;;7.14;100.00
69058;BME280;56128;37.534;-122.308;2023-04-12T07:24:52;101686.63;;;7.13;100.00
69058;BME280;56128;37.534;-122.308;2023-04-12T07:27:18;101687.34;;;7.17;100.00
69058;BME280;56128;37.534;-122.308;2023-04-12T07:29:45;101685.91;;;7.10;100.00
69058;BME280;56128;37.534;-122.308;2023-04-12T07:32:11;101679.09;;;7.23;100.00
69058;BME280;56128;37.534;-122.308;2023-04-12T07:34:37;101690.03;;;7.17;100.00
69058;BME280;56128;37.534;-122.308;2023-04-12T07:37:04;101680.59;;;7.10;100.00
69058;BME280;56128;37.534;-122.308;2023-04-12T07:39:30;101675.50;;;7.05;100.00
69058;BME280;56128;37.534;-122.308;2023-04-12T07:41:59;101684.78;;;6.96;100.00
69058;BME280;56128;37.534;-122.308;2023-04-12T07:44:26;101677.72;;;6.95;100.00
69058;BME280;56128;37.534;-122.308;2023-04-12T07:46:52;101678.72;;;6.93;100.00
69058;BME280;56128;37.534;-122.308;2023-04-12T07:49:18;101675.78;;;6.99;100.00
69058;BME280;56128;37.534;-122.308;2023-04-12T07:51:44;101675.84;;;6.97;100.00
69058;BME280;56128;37.534;-122.308;2023-04-12T07:54:10;101674.41;;;6.90;100.00
69058;BME280;56128;37.534;-122.308;2023-04-12T07:56:37;101680.66;;;6.89;100.00
69058;BME280;56128;37.534;-122.308;2023-04-12T07:59:04;101677.19;;;6.87;100.00
69058;BME280;56128;37.534;-122.308;2023-04-12T08:01:30;101676.06;;;6.93;100.00
69058;BME280;56128;37.534;-122.308;2023-04-12T08:03:57;101672.13;;;7.02;100.00
69058;BME280;56128;37.534;-122.308;2023-04-12T08:06:23;101661.31;;;7.05;100.00
69058;BME280;56128;37.534;-122.308;2023-04-12T08:08:49;101664.97;;;7.02;100.00
69058;BME280;56128;37.534;-122.308;2023-04-12T08:11:16;101669.78;;;6.94;100.00
69058;BME280;56128;37.534;-122.308;2023-04-12T08:13:42;101660.50;;;7.03;100.00
69058;BME280;56128;37.534;-122.308;2023-04-12T08:16:08;101668.66;;;6.99;100.00
69058;BME280;56128;37.534;-122.308;2023-04-12T08:18:34;101665.72;;;7.06;100.00
69058;BME280;56128;37.534;-122.308;2023-04-12T08:21:01;101675.84;;;6.97;100.00
69058;BME280;56128;37.534;-122.308;2023-04-12T08:23:27;101658.94;;;6.98;100.00
69058;BME280;56128;37.534;-122.308;2023-04-12T08:25:53;101652.69;;;6.99;100.00
69058;BME280;56128;37.534;-122.308;2023-04-12T08:28:28;101654.53;;;6.97;100.00
69058;BME280;56128;37.534;-122.308;2023-04-12T08:30:54;101652.53;;;7.03;100.00
69058;BME280;56128;37.534;-122.308;2023-04-12T08:33:20;101642.75;;;7.03;100.00
69058;BME280;56128;37.534;-122.308;2023-04-12T08:35:47;101639.91;;;7.08;100.00
69058;BME280;56128;37.534;-122.308;2023-04-12T08:38:13;101632.94;;;7.05;100.00
69058;BME280;56128;37.534;-122.308;2023-04-12T08:40:42;101650.97;;;6.98;100.00
69058;BME280;56128;37.534;-122.308;2023-04-12T08:43:10;101633.78;;;7.06;100.00
69058;BME280;56128;37.534;-122.308;2023-04-12T08:45:37;101634.56;;;7.08;100.00
69058;BME280;56128;37.534;-122.308;2023-04-12T08:48:06;101630.19;;;7.07;100.00
69058;BME280;56128;37.534;-122.308;2023-04-12T08:50:32;101641.19;;;7.18;100.00
69058;BME280;56128;37.534;-122.308;2023-04-12T08:52:59;101646.63;;;7.15;100.00
69058;BME280;56128;37.534;-122.308;2023-04-12T08:55:25;101628.97;;;7.14;100.00
69058;BME280;56128;37.534;-122.308;2023-04-12T08:57:54;101628.28;;;7.09;100.00
69058;BME280;56128;37.534;-122.308;2023-04-12T09:00:24;101634.88;;;7.02;100.00
69058;BME280;56128;37.534;-122.308;2023-04-12T09:02:51;101631.59;;;6.95;100.00
69058;BME280;56128;37.534;-122.308;2023-04-12T09:05:17;101618.47;;;6.92;100.00
69058;BME280;56128;37.534;-122.308;2023-04-12T09:07:44;101612.41;;;6.88;100.00
69058;BME280;56128;37.534;-122.308;2023-04-12T09:10:10;101602.63;;;6.89;100.00
69058;BME280;56128;37.534;-122.308;2023-04-12T09:12:54;101601.13;;;7.02;100.00
69058;BME280;56128;37.534;-122.308;2023-04-12T09:15:48;101591.78;;;6.93;100.00
69058;BME280;56128;37.534;-122.308;2023-04-12T09:18:15;101601.63;;;6.91;100.00
69058;BME280;56128;37.534;-122.308;2023-04-12T09:20:41;101591.13;;;6.88;100.00
69058;BME280;56128;37.534;-122.308;2023-04-12T09:23:20;101590.34;;;6.86;100.00
69058;BME280;56128;37.534;-122.308;2023-04-12T09:25:47;101572.81;;;6.82;100.00
69058;BME280;56128;37.534;-122.308;2023-04-12T09:28:21;101573.03;;;6.96;100.00
69058;BME280;56128;37.534;-122.308;2023-04-12T09:30:48;101560.50;;;6.98;100.00
69058;BME280;56128;37.534;-122.308;2023-04-12T09:33:21;101568.69;;;6.94;100.00
69058;BME280;56128;37.534;-122.308;2023-04-12T09:35:48;101555.34;;;6.95;100.00
69058;BME280;56128;37.534;-122.308;2023-04-12T09:38:15;101555.81;;;7.04;100.00
69058;BME280;56128;37.534;-122.308;2023-04-12T09:40:41;101550.72;;;6.99;100.00
69058;BME280;56128;37.534;-122.308;2023-04-12T09:43:08;101541.47;;;7.06;100.00
69058;BME280;56128;37.534;-122.308;2023-04-12T09:45:35;101545.78;;;7.09;100.00
69058;BME280;56128;37.534;-122.308;2023-04-12T09:48:05;101541.44;;;7.08;100.00
69058;BME280;56128;37.534;-122.308;2023-04-12T09:50:32;101530.91;;;7.05;100.00
69058;BME280;56128;37.534;-122.308;2023-04-12T09:53:00;101536.16;;;7.06;100.00
69058;BME280;56128;37.534;-122.308;2023-04-12T09:55:29;101535.44;;;7.03;100.00
69058;BME280;56128;37.534;-122.308;2023-04-12T09:58:02;101526.22;;;7.10;100.00
69058;BME280;56128;37.534;-122.308;2023-04-12T10:00:30;101536.56;;;7.16;100.00
69058;BME280;56128;37.534;-122.308;2023-04-12T10:02:59;101532.13;;;7.17;100.00
69058;BME280;56128;37.534;-122.308;2023-04-12T10:05:26;101542.06;;;7.13;100.00
69058;BME280;56128;37.534;-122.308;2023-04-12T10:07:52;101527.31;;;7.06;100.00
69058;BME280;56128;37.534;-122.308;2023-04-12T10:10:19;101535.16;;;7.09;100.00
69058;BME280;56128;37.534;-122.308;2023-04-12T10:12:47;101509.63;;;7.05;100.00
69058;BME280;56128;37.534;-122.308;2023-04-12T10:15:14;101528.34;;;7.03;100.00
69058;BME280;56128;37.534;-122.308;2023-04-12T10:17:53;101529.91;;;7.07;100.00
69058;BME280;56128;37.534;-122.308;2023-04-12T10:20:21;101523.94;;;7.02;100.00
69058;BME280;56128;37.534;-122.308;2023-04-12T10:22:51;101526.53;;;7.04;100.00
69058;BME280;56128;37.534;-122.308;2023-04-12T10:25:23;101522.38;;;6.98;100.00
69058;BME280;56128;37.534;-122.308;2023-04-12T10:27:50;101531.13;;;7.00;100.00
69058;BME280;56128;37.534;-122.308;2023-04-12T10:30:23;101535.09;;;6.91;100.00
69058;BME280;56128;37.534;-122.308;2023-04-12T10:33:10;101523.44;;;6.94;100.00
69058;BME280;56128;37.534;-122.308;2023-04-12T10:38:17;101515.84;;;6.86;100.00
69058;BME280;56128;37.534;-122.308;2023-04-12T10:41:06;101512.41;;;6.84;100.00
69058;BME280;56128;37.534;-122.308;2023-04-12T10:43:32;101511.78;;;6.79;100.00
69058;BME280;56128;37.534;-122.308;2023-04-12T10:45:59;101507.41;;;6.78;100.00
69058;BME280;56128;37.534;-122.308;2023-04-12T10:48:38;101503.13;;;6.74;100.00
69058;BME280;56128;37.534;-122.308;2023-04-12T10:51:19;101504.22;;;6.70;100.00
69058;BME280;56128;37.534;-122.308;2023-04-12T10:53:53;101515.50;;;6.75;100.00
69058;BME280;56128;37.534;-122.308;2023-04-12T10:56:43;101519.03;;;6.75;100.00
69058;BME280;56128;37.534;-122.308;2023-04-12T10:59:11;101517.69;;;6.66;100.00
69058;BME280;56128;37.534;-122.308;2023-04-12T11:01:38;101514.38;;;6.61;100.00
69058;BME280;56128;37.534;-122.308;2023-04-12T11:04:17;101510.00;;;6.60;100.00
69058;BME280;56128;37.534;-122.308;2023-04-12T11:06:54;101508.78;;;6.68;100.00
69058;BME280;56128;37.534;-122.308;2023-04-12T11:14:36;101496.88;;;6.75;100.00
69058;BME280;56128;37.534;-122.308;2023-04-12T11:19:41;101500.94;;;6.64;100.00
69058;BME280;56128;37.534;-122.308;2023-04-12T11:22:10;101495.41;;;6.69;100.00
69058;BME280;56128;37.534;-122.308;2023-04-12T11:24:38;101492.25;;;6.61;100.00
69058;BME280;56128;37.534;-122.308;2023-04-12T11:27:04;101498.34;;;6.63;100.00
69058;BME280;56128;37.534;-122.308;2023-04-12T11:32:16;101489.19;;;6.69;100.00
69058;BME280;56128;37.534;-122.308;2023-04-12T11:34:44;101490.09;;;6.69;100.00
69058;BME280;56128;37.534;-122.308;2023-04-12T11:37:12;101501.72;;;6.66;100.00
69058;BME280;56128;37.534;-122.308;2023-04-12T11:39:40;101500.81;;;6.68;100.00
69058;BME280;56128;37.534;-122.308;2023-04-12T11:42:18;101503.69;;;6.63;100.00
69058;BME280;56128;37.534;-122.308;2023-04-12T11:44:46;101497.13;;;6.51;100.00
69058;BME280;56128;37.534;-122.308;2023-04-12T11:47:21;101500.50;;;6.55;100.00
69058;BME280;56128;37.534;-122.308;2023-04-12T11:49:52;101502.41;;;6.53;100.00
69058;BME280;56128;37.534;-122.308;2023-04-12T11:52:19;101494.19;;;6.57;100.00
69058;BME280;56128;37.534;-122.308;2023-04-12T11:54:48;101495.09;;;6.56;100.00
69058;BME280;56128;37.534;-122.308;2023-04-12T11:57:16;101491.69;;;6.54;100.00
69058;BME280;56128;37.534;-122.308;2023-04-12T11:59:44;101493.25;;;6.58;100.00
69058;BME280;56128;37.534;-122.308;2023-04-12T12:02:12;101488.09;;;6.55;100.00
69058;BME280;56128;37.534;-122.308;2023-04-12T12:04:43;101490.88;;;6.52;100.00
69058;BME280;56128;37.534;-122.308;2023-04-12T12:07:11;101483.84;;;6.51;100.00
69058;BME280;56128;37.534;-122.308;2023-04-12T12:09:39;101486.50;;;6.51;100.00
69058;BME280;56128;37.534;-122.308;2023-04-12T12:12:06;101493.69;;;6.49;100.00
69058;BME280;56128;37.534;-122.308;2023-04-12T12:14:34;101491.81;;;6.51;100.00
69058;BME280;56128;37.534;-122.308;2023-04-12T12:17:01;101495.56;;;6.47;100.00
69058;BME280;56128;37.534;-122.308;2023-04-12T12:19:33;101497.41;;;6.45;100.00
69058;BME280;56128;37.534;-122.308;2023-04-12T12:22:09;101503.81;;;6.41;100.00
69058;BME280;56128;37.534;-122.308;2023-04-12T12:24:48;101499.59;;;6.37;100.00
69058;BME280;56128;37.534;-122.308;2023-04-12T12:27:36;101495.13;;;6.37;100.00
69058;BME280;56128;37.534;-122.308;2023-04-12T12:30:06;101501.31;;;6.38;100.00
69058;BME280;56128;37.534;-122.308;2023-04-12T12:32:35;101504.91;;;6.37;100.00
69058;BME280;56128;37.534;-122.308;2023-04-12T12:35:06;101502.66;;;6.27;100.00
69058;BME280;56128;37.534;-122.308;2023-04-12T12:37:33;101509.22;;;6.20;100.00
69058;BME280;56128;37.534;-122.308;2023-04-12T12:40:04;101512.28;;;6.11;100.00
69058;BME280;56128;37.534;-122.308;2023-04-12T12:42:52;101505.31;;;6.08;100.00
69058;BME280;56128;37.534;-122.308;2023-04-12T12:45:23;101505.03;;;6.14;100.00
69058;BME280;56128;37.534;-122.308;2023-04-12T12:47:58;101507.75;;;6.13;100.00